createdAt,value
2018-07-25T00:01:45.931Z,1.00
2018-07-25T00:04:14.097Z,1.00
2018-07-25T00:06:42.227Z,1.00
2018-07-25T00:09:11.351Z,1.00
2018-07-25T00:11:39.536Z,1.00
2018-07-25T00:14:07.716Z,1.00
2018-07-25T00:16:36.227Z,1.00
2018-07-25T00:19:04.592Z,1.00
2018-07-25T00:21:32.940Z,1.00
2018-07-25T00:24:01.084Z,1.00
2018-07-25T00:26:31.058Z,1.00
2018-07-25T00:28:59.219Z,1.00
2018-07-25T00:31:27.368Z,1.00
2018-07-25T00:33:55.592Z,1.00
2018-07-25T00:36:23.741Z,1.00
2018-07-25T00:38:51.925Z,1.00
2018-07-25T00:41:20.121Z,1.00
2018-07-25T00:43:48.361Z,1.00
2018-07-25T00:46:16.513Z,1.00
2018-07-25T00:48:44.683Z,1.00
2018-07-25T00:51:12.832Z,1.00
2018-07-25T00:53:40.951Z,1.00
2018-07-25T00:56:09.145Z,1.00
2018-07-25T00:58:37.345Z,1.00
2018-07-25T01:01:05.477Z,1.00
2018-07-25T01:03:33.643Z,1.00
2018-07-25T01:06:01.784Z,1.00
2018-07-25T01:08:29.957Z,1.00
2018-07-25T01:10:58.123Z,1.00
2018-07-25T01:13:26.284Z,1.00
2018-07-25T01:15:54.462Z,1.00
2018-07-25T01:18:22.596Z,1.00
2018-07-25T01:20:50.804Z,1.00
2018-07-25T01:23:18.921Z,1.00
2018-07-25T01:25:47.076Z,1.00
2018-07-25T01:28:15.224Z,1.00
2018-07-25T01:30:43.399Z,1.00
2018-07-25T01:33:11.535Z,1.00
2018-07-25T01:35:39.727Z,1.00
2018-07-25T01:38:07.907Z,1.00
2018-07-25T01:40:36.075Z,1.00
2018-07-25T01:43:04.295Z,1.00
2018-07-25T01:45:32.436Z,1.00
2018-07-25T01:48:00.592Z,1.00
2018-07-25T01:50:28.740Z,1.00
2018-07-25T01:52:56.936Z,1.00
2018-07-25T01:55:25.080Z,1.00
2018-07-25T01:57:53.263Z,1.00
2018-07-25T02:02:49.440Z,1.00
2018-07-25T02:05:17.589Z,1.00
2018-07-25T02:07:45.739Z,1.00
2018-07-25T02:10:13.904Z,1.00
2018-07-25T02:12:42.096Z,1.00
2018-07-25T02:15:10.239Z,1.00
2018-07-25T02:17:38.461Z,1.00
2018-07-25T02:20:06.616Z,1.00
2018-07-25T02:22:35.609Z,1.00
2018-07-25T02:25:03.779Z,1.00
2018-07-25T02:27:31.922Z,1.00
2018-07-25T02:30:00.114Z,1.00
2018-07-25T02:32:28.297Z,1.00
2018-07-25T02:34:56.481Z,1.00
2018-07-25T02:37:24.640Z,1.00
2018-07-25T02:39:52.832Z,1.00
2018-07-25T02:42:20.993Z,1.00
2018-07-25T02:44:49.188Z,1.00
2018-07-25T02:47:17.386Z,1.00
2018-07-25T02:49:45.516Z,1.00
2018-07-25T02:52:13.668Z,1.00
2018-07-25T02:54:41.868Z,1.00
2018-07-25T02:57:10.132Z,1.00
2018-07-25T02:59:38.336Z,1.00
2018-07-25T03:02:06.540Z,1.00
2018-07-25T03:04:34.677Z,1.00
2018-07-25T03:07:02.868Z,1.00
2018-07-25T03:09:31.036Z,1.00
2018-07-25T03:11:59.259Z,1.00
2018-07-25T03:14:27.425Z,1.00
2018-07-25T03:16:55.648Z,1.00
2018-07-25T03:19:23.852Z,1.00
2018-07-25T03:21:51.975Z,1.00
2018-07-25T03:24:20.139Z,1.00
2018-07-25T03:26:48.351Z,1.00
2018-07-25T03:29:16.509Z,1.00
2018-07-25T03:31:44.700Z,1.00
2018-07-25T03:34:12.844Z,1.00
2018-07-25T03:36:41.063Z,1.00
2018-07-25T03:39:09.212Z,1.00
2018-07-25T03:41:37.349Z,1.00
2018-07-25T03:44:05.535Z,1.00
2018-07-25T03:46:33.700Z,1.00
2018-07-25T03:49:01.860Z,1.00
2018-07-25T03:51:30.053Z,1.00
2018-07-25T03:56:26.108Z,1.00
2018-07-25T03:58:54.290Z,1.00
2018-07-25T04:01:22.449Z,1.00
2018-07-25T04:03:50.587Z,1.00
2018-07-25T04:06:18.732Z,1.00
2018-07-25T04:08:46.912Z,1.00
2018-07-25T04:11:15.064Z,1.00
2018-07-25T04:13:43.273Z,1.00
2018-07-25T04:16:11.429Z,1.00
2018-07-25T04:18:39.592Z,1.00
2018-07-25T04:21:07.782Z,1.00
2018-07-25T04:23:36.067Z,1.00
2018-07-25T04:26:04.228Z,1.00
2018-07-25T04:28:32.393Z,1.00
2018-07-25T04:31:00.557Z,1.00
2018-07-25T04:33:28.760Z,1.00
2018-07-25T04:35:56.920Z,1.70
2018-07-25T04:38:25.064Z,1.00
2018-07-25T04:40:53.284Z,1.00
2018-07-25T04:43:21.452Z,1.00
2018-07-25T04:45:49.614Z,1.30
2018-07-25T04:48:17.803Z,1.40
2018-07-25T04:50:45.961Z,1.30
2018-07-25T04:53:14.173Z,2.00
2018-07-25T04:55:42.433Z,1.00
2018-07-25T04:58:10.591Z,1.00
2018-07-25T05:00:38.819Z,2.30
2018-07-25T05:03:06.972Z,2.40
2018-07-25T05:05:35.124Z,1.50
2018-07-25T05:08:03.306Z,1.80
2018-07-25T05:10:31.464Z,1.60
2018-07-25T05:12:59.681Z,2.30
2018-07-25T05:15:27.881Z,2.30
2018-07-25T05:17:56.142Z,1.00
2018-07-25T05:20:24.255Z,1.00
2018-07-25T05:22:52.435Z,1.00
2018-07-25T05:25:20.619Z,1.00
2018-07-25T05:27:48.887Z,1.00
2018-07-25T05:30:17.144Z,1.00
2018-07-25T05:32:45.373Z,1.00
2018-07-25T05:35:13.531Z,1.00
2018-07-25T05:37:41.705Z,1.00
2018-07-25T05:40:09.942Z,1.00
2018-07-25T05:42:38.441Z,1.00
2018-07-25T05:45:06.655Z,1.00
2018-07-25T05:47:34.863Z,1.00
2018-07-25T05:50:03.076Z,1.00
2018-07-25T05:52:31.278Z,1.00
2018-07-25T05:54:59.468Z,1.00
2018-07-25T05:57:27.645Z,1.00
2018-07-25T05:59:55.811Z,1.00
2018-07-25T06:02:23.974Z,1.00
2018-07-25T06:04:52.179Z,1.00
2018-07-25T06:07:20.365Z,1.00
2018-07-25T06:09:48.537Z,1.00
2018-07-25T06:12:16.727Z,1.00
2018-07-25T06:14:44.915Z,1.00
2018-07-25T06:17:13.085Z,1.00
2018-07-25T06:22:09.183Z,1.00
2018-07-25T06:24:37.372Z,1.00
2018-07-25T06:27:05.609Z,1.00
2018-07-25T06:29:33.772Z,1.00
2018-07-25T06:32:01.975Z,1.00
2018-07-25T06:34:30.148Z,1.00
2018-07-25T06:36:58.295Z,1.00
2018-07-25T06:39:26.516Z,1.00
2018-07-25T06:41:54.679Z,1.00
2018-07-25T06:44:22.863Z,1.00
2018-07-25T06:46:51.165Z,1.00
2018-07-25T06:49:19.348Z,1.00
2018-07-25T06:51:47.621Z,1.00
2018-07-25T06:54:15.872Z,1.00
2018-07-25T06:56:44.305Z,1.00
2018-07-25T06:59:12.569Z,1.00
2018-07-25T07:01:40.713Z,1.00
2018-07-25T07:04:08.926Z,1.00
2018-07-25T07:06:37.268Z,1.00
2018-07-25T07:09:07.367Z,1.00
2018-07-25T07:11:35.568Z,1.00
2018-07-25T07:14:03.900Z,1.00
2018-07-25T07:16:32.062Z,1.00
2018-07-25T07:19:00.223Z,1.00
2018-07-25T07:21:28.548Z,1.00
2018-07-25T07:23:56.834Z,1.00
2018-07-25T07:26:25.013Z,1.00
2018-07-25T07:28:53.565Z,1.00
2018-07-25T07:31:21.773Z,1.00
2018-07-25T07:33:50.032Z,1.00
2018-07-25T07:36:18.603Z,1.00
2018-07-25T07:38:47.056Z,1.00
2018-07-25T07:41:15.458Z,1.00
2018-07-25T07:43:43.758Z,1.00
2018-07-25T07:46:11.927Z,1.00
2018-07-25T07:48:40.077Z,1.00
2018-07-25T07:51:08.267Z,1.00
2018-07-25T07:53:36.442Z,1.00
2018-07-25T07:56:04.603Z,1.00
2018-07-25T07:58:32.733Z,1.00
2018-07-25T08:01:00.868Z,1.00
2018-07-25T08:03:29.061Z,1.00
2018-07-25T08:05:57.167Z,1.00
2018-07-25T08:08:25.338Z,1.00
2018-07-25T08:10:53.483Z,1.00
2018-07-25T08:13:21.821Z,1.00
2018-07-25T08:15:50.081Z,1.00
2018-07-25T08:18:18.363Z,1.00
2018-07-25T08:20:46.679Z,1.00
2018-07-25T08:23:14.771Z,1.00
2018-07-25T08:25:42.909Z,1.00
2018-07-25T08:28:11.068Z,1.00
2018-07-25T08:30:39.216Z,1.00
2018-07-25T08:33:07.361Z,1.00
2018-07-25T08:35:35.508Z,1.00
2018-07-25T08:38:03.663Z,1.00
2018-07-25T08:40:31.810Z,1.00
2018-07-25T08:42:59.971Z,1.00
2018-07-25T08:45:28.196Z,1.00
2018-07-25T08:47:56.381Z,1.00
2018-07-25T08:50:24.529Z,1.00
2018-07-25T08:52:52.772Z,1.00
2018-07-25T08:55:20.932Z,1.00
2018-07-25T08:57:49.116Z,1.00
2018-07-25T09:00:17.241Z,1.00
2018-07-25T09:02:45.381Z,1.00
2018-07-25T09:05:13.613Z,1.00
2018-07-25T09:07:41.835Z,1.00
2018-07-25T09:10:10.124Z,1.00
2018-07-25T09:12:38.410Z,1.00
2018-07-25T09:15:06.499Z,1.00
2018-07-25T09:17:34.589Z,1.00
2018-07-25T09:20:02.717Z,1.00
2018-07-25T09:22:30.843Z,1.00
2018-07-25T09:24:59.006Z,1.00
2018-07-25T09:27:27.177Z,1.00
2018-07-25T09:29:55.336Z,1.00
2018-07-25T09:32:23.474Z,1.00
2018-07-25T09:34:51.691Z,1.00
2018-07-25T09:37:19.890Z,1.00
2018-07-25T09:39:48.195Z,1.00
2018-07-25T09:42:16.353Z,1.00
2018-07-25T09:44:44.484Z,1.00
2018-07-25T09:47:12.652Z,1.00
2018-07-25T09:49:40.786Z,1.00
2018-07-25T09:52:08.960Z,1.00
2018-07-25T09:54:37.127Z,1.00
2018-07-25T09:57:05.399Z,1.00
2018-07-25T09:59:33.534Z,1.00
2018-07-25T10:02:01.738Z,1.00
2018-07-25T10:04:29.893Z,1.00
2018-07-25T10:06:58.045Z,1.00
2018-07-25T10:09:26.245Z,1.00
2018-07-25T10:11:54.573Z,1.00
2018-07-25T10:14:22.741Z,1.00
2018-07-25T10:16:50.923Z,1.00
2018-07-25T10:19:19.071Z,1.00
2018-07-25T10:21:47.306Z,1.00
2018-07-25T10:24:15.524Z,1.00
2018-07-25T10:26:44.008Z,1.00
2018-07-25T10:29:12.195Z,1.00
2018-07-25T10:31:40.378Z,1.00
2018-07-25T10:34:08.600Z,1.00
2018-07-25T10:36:37.392Z,1.00
2018-07-25T10:39:07.090Z,1.00
2018-07-25T10:41:35.259Z,1.00
2018-07-25T10:44:03.452Z,1.00
2018-07-25T10:46:31.616Z,1.00
2018-07-25T10:48:59.793Z,1.00
2018-07-25T10:51:27.972Z,1.00
2018-07-25T10:56:24.404Z,1.00
2018-07-25T10:58:52.565Z,1.00
2018-07-25T11:01:20.704Z,1.00
2018-07-25T11:03:49.035Z,1.00
2018-07-25T11:06:17.168Z,1.00
2018-07-25T11:08:45.321Z,1.00
2018-07-25T11:11:13.497Z,1.00
2018-07-25T11:13:41.678Z,1.00
2018-07-25T11:16:09.809Z,1.00
2018-07-25T11:18:37.970Z,1.00
2018-07-25T11:21:06.870Z,1.00
2018-07-25T11:23:35.060Z,1.00
2018-07-25T11:26:03.215Z,1.00
2018-07-25T11:30:59.281Z,1.00
2018-07-25T11:33:27.456Z,1.00
2018-07-25T11:35:55.607Z,1.00
2018-07-25T11:38:23.801Z,1.00
2018-07-25T11:40:51.920Z,1.00
2018-07-25T11:43:20.140Z,1.00
2018-07-25T11:45:48.311Z,1.00
2018-07-25T11:48:16.524Z,1.00
2018-07-25T11:50:44.700Z,1.00
2018-07-25T11:53:12.867Z,1.00
2018-07-25T11:55:41.089Z,1.00
2018-07-25T11:58:09.180Z,1.00
2018-07-25T12:00:44.005Z,1.00
2018-07-25T12:03:12.198Z,1.00
2018-07-25T12:05:40.341Z,1.00
2018-07-25T12:08:08.516Z,1.00
2018-07-25T12:10:36.818Z,1.00
2018-07-25T12:13:05.039Z,1.00
2018-07-25T12:15:33.104Z,1.00
2018-07-25T12:18:01.268Z,1.00
2018-07-25T12:20:29.435Z,1.00
2018-07-25T12:22:57.591Z,1.00
2018-07-25T12:25:25.754Z,1.00
2018-07-25T12:27:53.884Z,1.00
2018-07-25T12:30:22.079Z,1.00
2018-07-25T12:32:50.338Z,1.00
2018-07-25T12:35:18.485Z,1.00
2018-07-25T12:37:46.654Z,1.00
2018-07-25T12:40:14.797Z,1.00
2018-07-25T12:42:42.945Z,1.00
2018-07-25T12:45:11.122Z,1.00
2018-07-25T12:47:39.265Z,1.00
2018-07-25T12:50:07.410Z,1.00
2018-07-25T12:52:35.728Z,1.00
2018-07-25T12:55:03.893Z,1.00
2018-07-25T12:57:32.100Z,1.00
2018-07-25T13:00:00.251Z,1.00
2018-07-25T13:04:56.367Z,1.00
2018-07-25T13:07:24.511Z,1.00
2018-07-25T13:09:52.792Z,1.00
2018-07-25T13:12:20.928Z,1.00
2018-07-25T13:14:49.115Z,1.00
2018-07-25T13:17:17.278Z,1.00
2018-07-25T13:19:45.423Z,1.00
2018-07-25T13:22:13.584Z,1.00
2018-07-25T13:24:41.780Z,1.00
2018-07-25T13:27:09.920Z,1.00
2018-07-25T13:29:38.104Z,1.00
2018-07-25T13:32:06.277Z,1.00
2018-07-25T13:37:02.456Z,1.00
2018-07-25T13:39:30.579Z,1.00
2018-07-25T13:41:58.753Z,1.00
2018-07-25T13:44:26.875Z,1.00
2018-07-25T13:46:55.128Z,1.00
2018-07-25T13:49:23.355Z,1.00
2018-07-25T13:51:51.687Z,1.00
2018-07-25T13:54:19.859Z,1.00
2018-07-25T13:56:48.044Z,1.00
2018-07-25T13:59:16.183Z,1.00
2018-07-25T14:01:44.509Z,1.00
2018-07-25T14:04:12.658Z,1.00
2018-07-25T14:06:40.831Z,1.00
2018-07-25T14:09:10.065Z,1.00
2018-07-25T14:11:38.570Z,1.00
2018-07-25T14:14:06.933Z,1.00
2018-07-25T14:16:35.065Z,1.00
2018-07-25T14:19:03.277Z,1.00
2018-07-25T14:21:31.533Z,1.00
2018-07-25T14:24:00.418Z,1.00
2018-07-25T14:26:28.361Z,1.00
2018-07-25T14:28:56.634Z,1.00
2018-07-25T14:31:24.743Z,1.00
2018-07-25T14:33:52.922Z,1.00
2018-07-25T14:36:21.354Z,1.00
2018-07-25T14:38:49.657Z,1.00
2018-07-25T14:41:17.815Z,1.00
2018-07-25T14:43:45.965Z,1.00
2018-07-25T14:46:14.155Z,1.00
2018-07-25T14:48:42.297Z,1.00
2018-07-25T14:51:10.728Z,1.00
2018-07-25T14:53:38.807Z,1.00
2018-07-25T14:56:07.366Z,1.00
2018-07-25T14:58:35.477Z,1.00
2018-07-25T15:01:03.824Z,1.00
2018-07-25T15:03:31.977Z,1.00
2018-07-25T15:06:00.099Z,1.00
2018-07-25T15:08:28.241Z,1.00
2018-07-25T15:13:24.434Z,1.00
2018-07-25T15:15:52.560Z,1.00
2018-07-25T15:18:20.716Z,1.00
2018-07-25T15:20:48.875Z,1.00
2018-07-25T15:23:28.459Z,1.00
2018-07-25T15:25:56.622Z,1.00
2018-07-25T15:28:24.869Z,1.00
2018-07-25T15:30:52.894Z,1.00
2018-07-25T15:33:21.085Z,1.00
2018-07-25T15:35:49.281Z,1.00
2018-07-25T15:38:17.433Z,1.00
2018-07-25T15:43:13.485Z,1.00
2018-07-25T15:45:41.612Z,1.00
2018-07-25T15:48:09.767Z,1.00
2018-07-25T15:50:37.919Z,1.00
2018-07-25T15:53:06.073Z,1.00
2018-07-25T15:55:34.199Z,1.00
2018-07-25T15:58:02.387Z,1.00
2018-07-25T16:00:30.523Z,1.00
2018-07-25T16:02:58.660Z,1.00
2018-07-25T16:05:26.815Z,1.00
2018-07-25T16:07:55.045Z,1.00
2018-07-25T16:10:23.164Z,1.00
2018-07-25T16:12:51.325Z,1.00
2018-07-25T16:15:19.477Z,1.00
2018-07-25T16:17:47.712Z,1.00
2018-07-25T16:20:15.866Z,1.00
2018-07-25T16:22:44.041Z,1.00
2018-07-25T16:25:12.234Z,1.00
2018-07-25T16:27:40.371Z,1.00
2018-07-25T16:30:08.545Z,1.00
2018-07-25T16:32:36.760Z,1.00
2018-07-25T16:35:05.401Z,1.00
2018-07-25T16:37:33.607Z,1.00
2018-07-25T16:40:01.754Z,1.00
2018-07-25T16:42:29.888Z,1.00
2018-07-25T16:44:58.219Z,1.00
2018-07-25T16:47:26.383Z,1.00
2018-07-25T16:49:54.637Z,1.00
2018-07-25T16:52:22.832Z,1.00
2018-07-25T16:54:51.039Z,1.00
2018-07-25T16:57:19.178Z,1.00
2018-07-25T16:59:47.316Z,1.00
2018-07-25T17:02:15.511Z,1.00
2018-07-25T17:04:43.652Z,1.00
2018-07-25T17:07:12.104Z,1.00
2018-07-25T17:09:40.249Z,1.00
2018-07-25T17:12:08.367Z,1.00
2018-07-25T17:14:36.618Z,1.00
2018-07-25T17:17:04.767Z,1.00
2018-07-25T17:19:34.103Z,1.00
2018-07-25T17:22:02.272Z,1.00
2018-07-25T17:24:30.467Z,1.00
2018-07-25T17:26:58.890Z,1.00
2018-07-25T17:29:27.040Z,1.00
2018-07-25T17:31:56.097Z,1.00
2018-07-25T17:34:24.239Z,1.00
2018-07-25T17:36:52.381Z,1.00
2018-07-25T17:39:20.552Z,1.00
2018-07-25T17:41:48.699Z,1.00
2018-07-25T17:44:16.873Z,1.00
2018-07-25T17:46:45.014Z,1.00
2018-07-25T17:49:13.163Z,1.00
2018-07-25T17:51:41.329Z,1.00
2018-07-25T17:54:09.478Z,1.00
2018-07-25T17:56:37.607Z,1.00
2018-07-25T17:59:05.731Z,1.00
2018-07-25T18:01:33.894Z,1.00
2018-07-25T18:04:02.112Z,1.00
2018-07-25T18:06:30.267Z,1.00
2018-07-25T18:08:58.520Z,1.00
2018-07-25T18:11:26.711Z,1.00
2018-07-25T18:14:00.252Z,1.00
2018-07-25T18:16:28.496Z,1.00
2018-07-25T18:18:56.817Z,1.00
2018-07-25T18:21:25.006Z,1.00
2018-07-25T18:23:53.159Z,1.00
2018-07-25T18:26:21.276Z,1.00
2018-07-25T18:28:49.522Z,1.00
2018-07-25T18:31:17.639Z,1.00
2018-07-25T18:33:45.876Z,1.00
2018-07-25T18:36:14.026Z,1.00
2018-07-25T18:38:42.209Z,1.00
2018-07-25T18:41:10.485Z,1.00
2018-07-25T18:43:38.652Z,1.00
2018-07-25T18:46:06.836Z,1.00
2018-07-25T18:48:34.984Z,1.00
2018-07-25T18:51:03.156Z,1.00
2018-07-25T18:53:31.378Z,1.00
2018-07-25T18:55:59.764Z,1.00
2018-07-25T18:58:27.932Z,1.00
2018-07-25T19:00:56.241Z,1.00
2018-07-25T19:03:24.407Z,1.00
2018-07-25T19:05:52.580Z,1.00
2018-07-25T19:08:20.724Z,1.00
2018-07-25T19:10:48.860Z,1.00
2018-07-25T19:13:22.391Z,1.00
2018-07-25T19:15:50.592Z,1.00
2018-07-25T19:18:18.810Z,1.00
2018-07-25T19:20:46.899Z,1.00
2018-07-25T19:23:15.018Z,1.00
2018-07-25T19:25:43.212Z,1.00
2018-07-25T19:28:11.330Z,1.00
2018-07-25T19:30:39.862Z,1.00
2018-07-25T19:33:08.140Z,1.00
2018-07-25T19:35:36.374Z,1.00
2018-07-25T19:38:04.454Z,1.00
2018-07-25T19:40:32.608Z,1.00
2018-07-25T19:43:00.949Z,1.00
2018-07-25T19:45:29.227Z,1.00
2018-07-25T19:47:57.354Z,1.00
2018-07-25T19:50:25.548Z,1.00
2018-07-25T19:52:53.632Z,1.00
2018-07-25T19:55:21.796Z,1.00
2018-07-25T19:57:49.940Z,1.00
2018-07-25T20:00:18.106Z,1.00
2018-07-25T20:02:46.310Z,1.00
2018-07-25T20:05:15.077Z,1.00
2018-07-25T20:07:43.467Z,1.00
2018-07-25T20:10:11.680Z,1.00
2018-07-25T20:12:39.844Z,1.00
2018-07-25T20:15:13.970Z,1.00
2018-07-25T20:17:42.124Z,1.00
2018-07-25T20:20:10.755Z,1.00
2018-07-25T20:22:38.902Z,1.00
2018-07-25T20:25:07.103Z,1.00
2018-07-25T20:27:35.632Z,1.00
2018-07-25T20:30:04.738Z,1.00
2018-07-25T20:32:33.134Z,1.00
2018-07-25T20:35:01.296Z,1.00
2018-07-25T20:37:29.433Z,1.00
2018-07-25T20:39:57.607Z,1.00
2018-07-25T20:42:25.737Z,1.00
2018-07-25T20:44:53.884Z,1.00
2018-07-25T20:47:21.996Z,1.00
2018-07-25T20:49:50.123Z,1.00
2018-07-25T20:52:18.265Z,1.00
2018-07-25T20:54:46.409Z,1.00
2018-07-25T20:57:14.831Z,1.00
2018-07-25T20:59:43.005Z,1.00
2018-07-25T21:02:11.197Z,1.00
2018-07-25T21:04:39.630Z,1.00
2018-07-25T21:07:07.954Z,1.00
2018-07-25T21:09:36.100Z,1.00
2018-07-25T21:12:04.298Z,1.00
2018-07-25T21:14:32.445Z,1.00
2018-07-25T21:17:00.716Z,1.00
2018-07-25T21:19:28.860Z,1.00
2018-07-25T21:21:57.298Z,1.00
2018-07-25T21:24:25.613Z,1.00
2018-07-25T21:26:53.753Z,1.00
2018-07-25T21:29:21.911Z,1.00
2018-07-25T21:31:51.338Z,1.00
2018-07-25T21:34:19.489Z,1.00
2018-07-25T21:36:47.699Z,1.00
2018-07-25T21:39:15.826Z,1.00
2018-07-25T21:41:44.024Z,1.00
2018-07-25T21:44:12.171Z,1.00
2018-07-25T21:46:40.361Z,1.00
2018-07-25T21:49:08.536Z,1.00
2018-07-25T21:51:36.669Z,1.00
2018-07-25T21:54:04.915Z,1.00
2018-07-25T21:56:33.199Z,1.00
2018-07-25T21:59:01.356Z,1.00
2018-07-25T22:01:29.512Z,1.00
2018-07-25T22:03:57.680Z,1.00
2018-07-25T22:06:25.955Z,1.00
2018-07-25T22:08:54.180Z,1.00
2018-07-25T22:11:22.267Z,1.00
2018-07-25T22:13:54.432Z,1.00
2018-07-25T22:16:22.999Z,1.00
2018-07-25T22:18:51.213Z,1.00
2018-07-25T22:21:19.413Z,1.00
2018-07-25T22:23:47.645Z,1.00
2018-07-25T22:26:15.796Z,1.00
2018-07-25T22:28:44.002Z,1.00
2018-07-25T22:31:12.164Z,1.00
2018-07-25T22:33:40.360Z,1.00
2018-07-25T22:36:09.016Z,1.00
2018-07-25T22:38:37.188Z,1.00
2018-07-25T22:41:05.567Z,1.00
2018-07-25T22:43:33.712Z,1.00
2018-07-25T22:46:01.910Z,1.00
2018-07-25T22:48:30.077Z,1.00
2018-07-25T22:50:58.366Z,1.00
2018-07-25T22:53:26.532Z,1.00
2018-07-25T22:55:54.724Z,1.00
2018-07-25T22:58:22.920Z,1.00
2018-07-25T23:00:51.084Z,1.00
2018-07-25T23:03:19.235Z,1.00
2018-07-25T23:05:47.386Z,1.00
2018-07-25T23:08:15.578Z,1.00
2018-07-25T23:10:43.724Z,1.00
2018-07-25T23:13:11.948Z,1.00
2018-07-25T23:15:40.104Z,1.00
2018-07-25T23:18:08.263Z,1.00
2018-07-25T23:20:36.396Z,1.00
2018-07-25T23:23:04.569Z,1.00
2018-07-25T23:25:32.706Z,1.00
2018-07-25T23:28:00.875Z,1.00
2018-07-25T23:30:29.660Z,1.00
2018-07-25T23:32:57.842Z,1.00
2018-07-25T23:35:26.009Z,1.00
2018-07-25T23:37:54.203Z,1.00
2018-07-25T23:40:22.343Z,1.00
2018-07-25T23:45:18.776Z,1.00
2018-07-25T23:47:46.922Z,1.00
2018-07-25T23:50:15.067Z,1.00
2018-07-25T23:52:43.225Z,1.00
2018-07-25T23:55:11.374Z,1.00
2018-07-25T23:57:39.598Z,1.00
